Archival Weather

NSFA McMurdo Sound

NSFA McMurdo Sound, Antarctica (NZCM)

Report from: Thursday, September 21, 2023 2:07 AM UTC
Current time: Saturday, February 24, 2024 3:28 PM UTC

Current weather – Weather history – Daily summaries
Weather forecast

Present weatherLight snow
Temperature-10.4°C (13.3°F)
Dew point-13.6°C (7.5°F)
Winds Calm
Visibility6.2 mi. (10 km)
Clouds Few clouds 4,700 ft. (1,433 m)
Ceiling: Broken clouds 6,500 ft. (1,981 m)
Overcast 7,500 ft. (2,286 m)
Altimeter28.58 in.Hg (968 mB)
Precip. events Snow began 2:07 AM
Relative humidity77 %
Density altitude-4,997 ft. (-1,523 m)
Sea-level pressure106.8 kPa (1068 mB, 31.54 in.Hg)
Remarks Fully automated report
Special weather observation
Automated weather observing station with precipitation discriminator
Flight conditions Visual Meteorological Conditions
Raw dataSPECI NZCM 210207Z AUTO 00000KT 9999 -SN FEW047 BKN065 OVC075 M10/M14 A2858 RMK AO2 SNB0207 SLP682 T11041136
An error has occurred. This application may no longer respond until reloaded. Reload 🗙